sensor_id;sensor_type;location;lat;lon;timestamp;P1;durP1;ratioP1;P2;durP2;ratioP2
4202;SDS011;2115;51.038;7.006;2022-11-12T00:01:56;16.80;;;6.90;;
4202;SDS011;2115;51.038;7.006;2022-11-12T00:04:22;13.37;;;7.23;;
4202;SDS011;2115;51.038;7.006;2022-11-12T00:06:47;14.13;;;7.60;;
4202;SDS011;2115;51.038;7.006;2022-11-12T00:09:13;12.63;;;6.20;;
4202;SDS011;2115;51.038;7.006;2022-11-12T00:11:38;9.33;;;5.87;;
4202;SDS011;2115;51.038;7.006;2022-11-12T00:14:03;14.00;;;7.30;;
4202;SDS011;2115;51.038;7.006;2022-11-12T00:16:29;11.60;;;6.03;;
4202;SDS011;2115;51.038;7.006;2022-11-12T00:18:54;10.47;;;6.27;;
4202;SDS011;2115;51.038;7.006;2022-11-12T00:21:19;15.80;;;7.40;;
4202;SDS011;2115;51.038;7.006;2022-11-12T00:23:45;13.63;;;7.23;;
4202;SDS011;2115;51.038;7.006;2022-11-12T00:26:10;12.73;;;6.50;;
4202;SDS011;2115;51.038;7.006;2022-11-12T00:28:35;14.30;;;7.70;;
4202;SDS011;2115;51.038;7.006;2022-11-12T00:31:05;10.20;;;6.33;;
4202;SDS011;2115;51.038;7.006;2022-11-12T00:33:32;14.70;;;6.60;;
4202;SDS011;2115;51.038;7.006;2022-11-12T00:35:58;14.77;;;7.37;;
4202;SDS011;2115;51.038;7.006;2022-11-12T00:38:24;18.03;;;8.20;;
4202;SDS011;2115;51.038;7.006;2022-11-12T00:40:49;10.07;;;6.10;;
4202;SDS011;2115;51.038;7.006;2022-11-12T00:43:14;12.00;;;6.90;;
4202;SDS011;2115;51.038;7.006;2022-11-12T00:45:41;10.17;;;6.33;;
4202;SDS011;2115;51.038;7.006;2022-11-12T00:48:07;11.37;;;6.90;;
4202;SDS011;2115;51.038;7.006;2022-11-12T00:50:32;11.67;;;6.30;;
4202;SDS011;2115;51.038;7.006;2022-11-12T00:52:57;8.93;;;5.93;;
4202;SDS011;2115;51.038;7.006;2022-11-12T00:55:23;11.33;;;6.80;;
4202;SDS011;2115;51.038;7.006;2022-11-12T00:57:48;14.27;;;6.70;;
4202;SDS011;2115;51.038;7.006;2022-11-12T01:00:14;13.47;;;6.33;;
4202;SDS011;2115;51.038;7.006;2022-11-12T01:02:41;12.23;;;5.60;;
4202;SDS011;2115;51.038;7.006;2022-11-12T01:07:44;9.13;;;5.90;;
4202;SDS011;2115;51.038;7.006;2022-11-12T01:10:10;9.70;;;5.20;;
4202;SDS011;2115;51.038;7.006;2022-11-12T01:12:36;12.63;;;5.40;;
4202;SDS011;2115;51.038;7.006;2022-11-12T01:15:02;10.10;;;6.13;;
4202;SDS011;2115;51.038;7.006;2022-11-12T01:17:29;8.90;;;5.10;;
4202;SDS011;2115;51.038;7.006;2022-11-12T01:19:55;14.00;;;6.37;;
4202;SDS011;2115;51.038;7.006;2022-11-12T01:22:21;8.27;;;5.03;;
4202;SDS011;2115;51.038;7.006;2022-11-12T01:24:46;8.50;;;5.07;;
4202;SDS011;2115;51.038;7.006;2022-11-12T01:27:12;13.83;;;5.17;;
4202;SDS011;2115;51.038;7.006;2022-11-12T01:29:37;9.53;;;5.30;;
4202;SDS011;2115;51.038;7.006;2022-11-12T01:32:02;10.50;;;5.13;;
4202;SDS011;2115;51.038;7.006;2022-11-12T01:34:28;8.80;;;5.23;;
4202;SDS011;2115;51.038;7.006;2022-11-12T01:36:54;10.00;;;4.93;;
4202;SDS011;2115;51.038;7.006;2022-11-12T01:39:19;10.80;;;5.13;;
4202;SDS011;2115;51.038;7.006;2022-11-12T01:41:45;16.00;;;5.70;;
4202;SDS011;2115;51.038;7.006;2022-11-12T01:44:12;9.10;;;5.90;;
4202;SDS011;2115;51.038;7.006;2022-11-12T01:49:27;8.13;;;5.20;;
4202;SDS011;2115;51.038;7.006;2022-11-12T01:52:21;8.43;;;4.83;;
4202;SDS011;2115;51.038;7.006;2022-11-12T01:54:52;7.53;;;4.77;;
4202;SDS011;2115;51.038;7.006;2022-11-12T01:57:22;9.00;;;4.97;;
4202;SDS011;2115;51.038;7.006;2022-11-12T01:59:52;9.73;;;5.63;;
4202;SDS011;2115;51.038;7.006;2022-11-12T02:02:22;10.00;;;4.80;;
4202;SDS011;2115;51.038;7.006;2022-11-12T02:04:48;8.23;;;4.73;;
4202;SDS011;2115;51.038;7.006;2022-11-12T02:07:14;9.10;;;4.63;;
4202;SDS011;2115;51.038;7.006;2022-11-12T02:09:40;9.63;;;5.13;;
4202;SDS011;2115;51.038;7.006;2022-11-12T02:12:06;9.97;;;4.50;;
4202;SDS011;2115;51.038;7.006;2022-11-12T02:14:31;7.43;;;4.80;;
4202;SDS011;2115;51.038;7.006;2022-11-12T02:16:57;12.13;;;4.63;;
4202;SDS011;2115;51.038;7.006;2022-11-12T02:19:22;12.13;;;5.00;;
4202;SDS011;2115;51.038;7.006;2022-11-12T02:21:47;6.80;;;4.37;;
4202;SDS011;2115;51.038;7.006;2022-11-12T02:26:45;8.43;;;4.63;;
4202;SDS011;2115;51.038;7.006;2022-11-12T02:29:12;9.47;;;5.07;;
4202;SDS011;2115;51.038;7.006;2022-11-12T02:31:37;8.37;;;4.83;;
4202;SDS011;2115;51.038;7.006;2022-11-12T02:34:03;14.67;;;5.13;;
4202;SDS011;2115;51.038;7.006;2022-11-12T02:36:28;6.87;;;4.63;;
4202;SDS011;2115;51.038;7.006;2022-11-12T02:38:54;9.93;;;4.80;;
4202;SDS011;2115;51.038;7.006;2022-11-12T02:41:20;7.53;;;4.80;;
4202;SDS011;2115;51.038;7.006;2022-11-12T02:43:46;7.97;;;5.57;;
4202;SDS011;2115;51.038;7.006;2022-11-12T02:46:11;6.63;;;4.37;;
4202;SDS011;2115;51.038;7.006;2022-11-12T02:48:37;10.13;;;4.40;;
4202;SDS011;2115;51.038;7.006;2022-11-12T02:51:02;9.73;;;4.80;;
4202;SDS011;2115;51.038;7.006;2022-11-12T02:53:28;7.67;;;4.77;;
4202;SDS011;2115;51.038;7.006;2022-11-12T02:55:53;9.67;;;5.50;;
4202;SDS011;2115;51.038;7.006;2022-11-12T02:58:18;7.27;;;4.43;;
4202;SDS011;2115;51.038;7.006;2022-11-12T03:00:46;11.33;;;5.10;;
4202;SDS011;2115;51.038;7.006;2022-11-12T03:03:12;6.90;;;4.93;;
4202;SDS011;2115;51.038;7.006;2022-11-12T03:05:37;9.43;;;5.00;;
4202;SDS011;2115;51.038;7.006;2022-11-12T03:08:04;9.07;;;4.30;;
4202;SDS011;2115;51.038;7.006;2022-11-12T03:10:31;10.10;;;5.80;;
4202;SDS011;2115;51.038;7.006;2022-11-12T03:12:58;12.90;;;5.57;;
4202;SDS011;2115;51.038;7.006;2022-11-12T03:15:24;9.40;;;5.40;;
4202;SDS011;2115;51.038;7.006;2022-11-12T03:17:50;8.27;;;5.13;;
4202;SDS011;2115;51.038;7.006;2022-11-12T03:20:15;10.80;;;5.40;;
4202;SDS011;2115;51.038;7.006;2022-11-12T03:22:41;8.07;;;5.43;;
4202;SDS011;2115;51.038;7.006;2022-11-12T03:25:07;10.37;;;5.63;;
4202;SDS011;2115;51.038;7.006;2022-11-12T03:27:33;9.97;;;5.10;;
4202;SDS011;2115;51.038;7.006;2022-11-12T03:29:58;8.50;;;5.10;;
4202;SDS011;2115;51.038;7.006;2022-11-12T03:32:24;12.83;;;6.53;;
4202;SDS011;2115;51.038;7.006;2022-11-12T03:34:49;7.83;;;5.07;;
4202;SDS011;2115;51.038;7.006;2022-11-12T03:37:14;7.57;;;4.67;;
4202;SDS011;2115;51.038;7.006;2022-11-12T03:39:40;8.43;;;4.67;;
4202;SDS011;2115;51.038;7.006;2022-11-12T03:42:05;8.47;;;4.80;;
4202;SDS011;2115;51.038;7.006;2022-11-12T03:44:30;9.10;;;5.30;;
4202;SDS011;2115;51.038;7.006;2022-11-12T03:46:56;7.83;;;4.43;;
4202;SDS011;2115;51.038;7.006;2022-11-12T03:49:21;5.67;;;4.10;;
4202;SDS011;2115;51.038;7.006;2022-11-12T03:51:46;13.13;;;4.97;;
4202;SDS011;2115;51.038;7.006;2022-11-12T03:54:12;7.67;;;4.80;;
4202;SDS011;2115;51.038;7.006;2022-11-12T03:56:37;8.00;;;3.90;;
4202;SDS011;2115;51.038;7.006;2022-11-12T03:59:03;7.40;;;3.97;;
4202;SDS011;2115;51.038;7.006;2022-11-12T04:01:28;8.50;;;4.73;;
4202;SDS011;2115;51.038;7.006;2022-11-12T04:03:53;5.40;;;4.00;;
4202;SDS011;2115;51.038;7.006;2022-11-12T04:06:19;6.90;;;3.97;;
4202;SDS011;2115;51.038;7.006;2022-11-12T04:09:03;7.63;;;4.63;;
4202;SDS011;2115;51.038;7.006;2022-11-12T04:11:28;8.27;;;4.40;;
4202;SDS011;2115;51.038;7.006;2022-11-12T04:13:54;10.33;;;4.17;;
4202;SDS011;2115;51.038;7.006;2022-11-12T04:16:20;9.20;;;4.07;;
4202;SDS011;2115;51.038;7.006;2022-11-12T04:19:05;10.00;;;4.70;;
4202;SDS011;2115;51.038;7.006;2022-11-12T04:21:52;9.10;;;5.20;;
4202;SDS011;2115;51.038;7.006;2022-11-12T04:24:27;8.60;;;4.53;;
4202;SDS011;2115;51.038;7.006;2022-11-12T04:27:22;15.10;;;8.83;;
4202;SDS011;2115;51.038;7.006;2022-11-12T04:29:48;16.40;;;9.10;;
4202;SDS011;2115;51.038;7.006;2022-11-12T04:32:33;14.70;;;8.20;;
4202;SDS011;2115;51.038;7.006;2022-11-12T04:35:03;18.07;;;7.20;;
4202;SDS011;2115;51.038;7.006;2022-11-12T04:37:31;14.13;;;6.40;;
4202;SDS011;2115;51.038;7.006;2022-11-12T04:40:18;10.50;;;5.00;;
4202;SDS011;2115;51.038;7.006;2022-11-12T04:43:03;8.10;;;4.73;;
4202;SDS011;2115;51.038;7.006;2022-11-12T04:45:49;7.57;;;4.30;;
4202;SDS011;2115;51.038;7.006;2022-11-12T04:48:15;7.20;;;4.47;;
4202;SDS011;2115;51.038;7.006;2022-11-12T04:50:42;9.40;;;5.67;;
4202;SDS011;2115;51.038;7.006;2022-11-12T04:53:08;7.33;;;4.73;;
4202;SDS011;2115;51.038;7.006;2022-11-12T04:55:34;10.30;;;5.50;;
4202;SDS011;2115;51.038;7.006;2022-11-12T04:57:59;10.73;;;6.00;;
4202;SDS011;2115;51.038;7.006;2022-11-12T05:00:24;6.53;;;4.60;;
4202;SDS011;2115;51.038;7.006;2022-11-12T05:02:50;9.97;;;5.27;;
4202;SDS011;2115;51.038;7.006;2022-11-12T05:05:15;7.10;;;4.00;;
4202;SDS011;2115;51.038;7.006;2022-11-12T05:07:41;8.57;;;4.60;;
4202;SDS011;2115;51.038;7.006;2022-11-12T05:10:06;11.60;;;5.23;;
4202;SDS011;2115;51.038;7.006;2022-11-12T05:12:32;8.73;;;4.27;;
4202;SDS011;2115;51.038;7.006;2022-11-12T05:14:57;10.00;;;5.23;;
4202;SDS011;2115;51.038;7.006;2022-11-12T05:17:23;11.30;;;4.93;;
4202;SDS011;2115;51.038;7.006;2022-11-12T05:19:48;7.80;;;5.07;;
4202;SDS011;2115;51.038;7.006;2022-11-12T05:22:13;9.10;;;4.60;;
4202;SDS011;2115;51.038;7.006;2022-11-12T05:24:39;7.37;;;4.90;;
4202;SDS011;2115;51.038;7.006;2022-11-12T05:27:08;7.20;;;4.50;;
4202;SDS011;2115;51.038;7.006;2022-11-12T05:29:43;8.80;;;4.40;;
4202;SDS011;2115;51.038;7.006;2022-11-12T05:32:12;11.00;;;5.60;;
4202;SDS011;2115;51.038;7.006;2022-11-12T05:34:39;10.97;;;5.70;;
4202;SDS011;2115;51.038;7.006;2022-11-12T05:37:05;11.27;;;5.50;;
4202;SDS011;2115;51.038;7.006;2022-11-12T05:39:31;10.50;;;6.83;;
4202;SDS011;2115;51.038;7.006;2022-11-12T05:41:56;10.73;;;6.20;;
4202;SDS011;2115;51.038;7.006;2022-11-12T05:44:21;11.80;;;6.30;;
4202;SDS011;2115;51.038;7.006;2022-11-12T05:46:47;10.10;;;5.30;;
4202;SDS011;2115;51.038;7.006;2022-11-12T05:49:13;8.33;;;5.20;;
4202;SDS011;2115;51.038;7.006;2022-11-12T05:51:38;8.43;;;4.80;;
4202;SDS011;2115;51.038;7.006;2022-11-12T05:54:04;10.73;;;4.90;;
4202;SDS011;2115;51.038;7.006;2022-11-12T05:56:29;15.50;;;5.00;;
4202;SDS011;2115;51.038;7.006;2022-11-12T05:58:55;8.50;;;4.27;;
4202;SDS011;2115;51.038;7.006;2022-11-12T06:01:21;9.70;;;5.20;;
4202;SDS011;2115;51.038;7.006;2022-11-12T06:03:46;7.43;;;4.63;;
4202;SDS011;2115;51.038;7.006;2022-11-12T06:06:12;9.10;;;5.30;;
4202;SDS011;2115;51.038;7.006;2022-11-12T06:08:37;11.07;;;4.77;;
4202;SDS011;2115;51.038;7.006;2022-11-12T06:11:02;7.83;;;4.50;;
4202;SDS011;2115;51.038;7.006;2022-11-12T06:13:28;7.50;;;4.23;;
4202;SDS011;2115;51.038;7.006;2022-11-12T06:15:54;7.60;;;4.97;;
4202;SDS011;2115;51.038;7.006;2022-11-12T06:18:19;8.30;;;4.83;;
4202;SDS011;2115;51.038;7.006;2022-11-12T06:20:45;11.20;;;4.90;;
4202;SDS011;2115;51.038;7.006;2022-11-12T06:23:31;8.50;;;4.60;;
4202;SDS011;2115;51.038;7.006;2022-11-12T06:25:57;7.60;;;4.70;;
4202;SDS011;2115;51.038;7.006;2022-11-12T06:28:22;10.60;;;5.53;;
4202;SDS011;2115;51.038;7.006;2022-11-12T06:30:47;7.40;;;5.43;;
4202;SDS011;2115;51.038;7.006;2022-11-12T06:33:13;19.37;;;5.53;;
4202;SDS011;2115;51.038;7.006;2022-11-12T06:35:38;13.03;;;5.80;;
4202;SDS011;2115;51.038;7.006;2022-11-12T06:38:03;8.63;;;5.33;;
4202;SDS011;2115;51.038;7.006;2022-11-12T06:40:29;10.73;;;5.87;;
4202;SDS011;2115;51.038;7.006;2022-11-12T06:42:57;13.10;;;6.43;;
4202;SDS011;2115;51.038;7.006;2022-11-12T06:45:23;14.83;;;6.03;;
4202;SDS011;2115;51.038;7.006;2022-11-12T06:47:48;10.67;;;6.80;;
4202;SDS011;2115;51.038;7.006;2022-11-12T06:50:14;11.27;;;6.80;;
4202;SDS011;2115;51.038;7.006;2022-11-12T06:52:40;13.20;;;7.00;;
4202;SDS011;2115;51.038;7.006;2022-11-12T06:55:05;9.97;;;6.10;;
4202;SDS011;2115;51.038;7.006;2022-11-12T06:57:32;9.37;;;6.33;;
4202;SDS011;2115;51.038;7.006;2022-11-12T06:59:58;9.47;;;6.50;;
4202;SDS011;2115;51.038;7.006;2022-11-12T07:02:23;11.23;;;6.80;;
4202;SDS011;2115;51.038;7.006;2022-11-12T07:04:48;8.63;;;5.40;;
4202;SDS011;2115;51.038;7.006;2022-11-12T07:07:14;10.27;;;5.97;;
4202;SDS011;2115;51.038;7.006;2022-11-12T07:09:39;15.47;;;5.87;;
4202;SDS011;2115;51.038;7.006;2022-11-12T07:12:04;9.63;;;6.03;;
4202;SDS011;2115;51.038;7.006;2022-11-12T07:14:30;10.40;;;5.80;;
4202;SDS011;2115;51.038;7.006;2022-11-12T07:16:55;12.83;;;6.00;;
4202;SDS011;2115;51.038;7.006;2022-11-12T07:19:21;10.40;;;5.73;;
4202;SDS011;2115;51.038;7.006;2022-11-12T07:21:46;20.13;;;6.73;;
4202;SDS011;2115;51.038;7.006;2022-11-12T07:24:11;10.10;;;6.07;;
4202;SDS011;2115;51.038;7.006;2022-11-12T07:26:37;12.40;;;6.73;;
4202;SDS011;2115;51.038;7.006;2022-11-12T07:29:02;12.60;;;5.40;;
4202;SDS011;2115;51.038;7.006;2022-11-12T07:31:27;8.17;;;5.30;;
4202;SDS011;2115;51.038;7.006;2022-11-12T07:33:53;14.30;;;6.53;;
4202;SDS011;2115;51.038;7.006;2022-11-12T07:36:19;17.43;;;6.50;;
4202;SDS011;2115;51.038;7.006;2022-11-12T07:38:45;8.53;;;5.90;;
4202;SDS011;2115;51.038;7.006;2022-11-12T07:41:15;10.50;;;5.67;;
4202;SDS011;2115;51.038;7.006;2022-11-12T07:43:42;10.57;;;6.30;;
4202;SDS011;2115;51.038;7.006;2022-11-12T07:46:16;15.93;;;6.93;;
4202;SDS011;2115;51.038;7.006;2022-11-12T07:48:46;13.00;;;6.87;;
4202;SDS011;2115;51.038;7.006;2022-11-12T07:51:16;12.03;;;6.50;;
4202;SDS011;2115;51.038;7.006;2022-11-12T07:53:45;9.90;;;5.87;;
4202;SDS011;2115;51.038;7.006;2022-11-12T07:56:13;11.50;;;6.40;;
4202;SDS011;2115;51.038;7.006;2022-11-12T07:58:41;25.43;;;5.80;;
4202;SDS011;2115;51.038;7.006;2022-11-12T08:01:10;16.27;;;7.83;;
4202;SDS011;2115;51.038;7.006;2022-11-12T08:04:02;13.90;;;6.30;;
4202;SDS011;2115;51.038;7.006;2022-11-12T08:06:30;10.40;;;6.30;;
4202;SDS011;2115;51.038;7.006;2022-11-12T08:08:56;11.80;;;6.83;;
4202;SDS011;2115;51.038;7.006;2022-11-12T08:11:23;11.40;;;6.60;;
4202;SDS011;2115;51.038;7.006;2022-11-12T08:13:49;15.03;;;7.33;;
4202;SDS011;2115;51.038;7.006;2022-11-12T08:16:15;11.60;;;7.30;;
4202;SDS011;2115;51.038;7.006;2022-11-12T08:18:41;10.13;;;7.23;;
4202;SDS011;2115;51.038;7.006;2022-11-12T08:21:08;11.90;;;6.87;;
4202;SDS011;2115;51.038;7.006;2022-11-12T08:23:35;13.30;;;7.70;;
4202;SDS011;2115;51.038;7.006;2022-11-12T08:26:01;10.87;;;7.10;;
4202;SDS011;2115;51.038;7.006;2022-11-12T08:28:28;16.03;;;7.43;;
4202;SDS011;2115;51.038;7.006;2022-11-12T08:30:55;11.47;;;7.40;;
4202;SDS011;2115;51.038;7.006;2022-11-12T08:33:21;22.93;;;7.53;;
4202;SDS011;2115;51.038;7.006;2022-11-12T08:35:47;12.13;;;6.73;;
4202;SDS011;2115;51.038;7.006;2022-11-12T08:38:12;12.93;;;7.23;;
4202;SDS011;2115;51.038;7.006;2022-11-12T08:40:38;11.70;;;7.07;;
4202;SDS011;2115;51.038;7.006;2022-11-12T08:43:07;11.73;;;7.33;;
4202;SDS011;2115;51.038;7.006;2022-11-12T08:45:37;14.90;;;6.33;;
4202;SDS011;2115;51.038;7.006;2022-11-12T08:48:05;13.33;;;7.40;;
4202;SDS011;2115;51.038;7.006;2022-11-12T08:50:32;13.17;;;7.50;;
4202;SDS011;2115;51.038;7.006;2022-11-12T08:52:58;13.63;;;7.33;;
4202;SDS011;2115;51.038;7.006;2022-11-12T08:55:25;8.90;;;6.37;;
4202;SDS011;2115;51.038;7.006;2022-11-12T08:57:51;9.60;;;6.20;;
4202;SDS011;2115;51.038;7.006;2022-11-12T09:00:16;11.60;;;6.07;;
4202;SDS011;2115;51.038;7.006;2022-11-12T09:02:42;12.00;;;6.30;;
4202;SDS011;2115;51.038;7.006;2022-11-12T09:05:07;10.67;;;5.60;;
4202;SDS011;2115;51.038;7.006;2022-11-12T09:07:33;8.20;;;5.70;;
4202;SDS011;2115;51.038;7.006;2022-11-12T09:09:58;12.33;;;5.93;;
4202;SDS011;2115;51.038;7.006;2022-11-12T09:12:25;14.20;;;6.20;;
4202;SDS011;2115;51.038;7.006;2022-11-12T09:14:50;9.23;;;5.10;;
4202;SDS011;2115;51.038;7.006;2022-11-12T09:17:15;7.73;;;5.97;;
4202;SDS011;2115;51.038;7.006;2022-11-12T09:19:41;8.33;;;5.50;;
4202;SDS011;2115;51.038;7.006;2022-11-12T09:22:06;13.73;;;6.13;;
4202;SDS011;2115;51.038;7.006;2022-11-12T09:24:32;10.13;;;4.70;;
4202;SDS011;2115;51.038;7.006;2022-11-12T09:26:57;12.97;;;5.57;;
4202;SDS011;2115;51.038;7.006;2022-11-12T09:29:23;8.03;;;4.60;;
4202;SDS011;2115;51.038;7.006;2022-11-12T09:31:48;7.40;;;5.43;;
4202;SDS011;2115;51.038;7.006;2022-11-12T09:34:14;9.00;;;5.83;;
4202;SDS011;2115;51.038;7.006;2022-11-12T09:36:39;13.23;;;5.60;;
4202;SDS011;2115;51.038;7.006;2022-11-12T09:39:05;7.13;;;5.13;;
4202;SDS011;2115;51.038;7.006;2022-11-12T09:41:34;10.23;;;5.07;;
4202;SDS011;2115;51.038;7.006;2022-11-12T09:44:02;13.20;;;5.10;;
4202;SDS011;2115;51.038;7.006;2022-11-12T09:46:41;6.73;;;4.80;;
4202;SDS011;2115;51.038;7.006;2022-11-12T09:49:15;9.90;;;5.00;;
4202;SDS011;2115;51.038;7.006;2022-11-12T09:51:51;10.40;;;4.40;;
4202;SDS011;2115;51.038;7.006;2022-11-12T09:54:24;6.53;;;3.80;;
4202;SDS011;2115;51.038;7.006;2022-11-12T09:56:51;10.30;;;4.10;;
4202;SDS011;2115;51.038;7.006;2022-11-12T09:59:17;5.90;;;3.90;;
4202;SDS011;2115;51.038;7.006;2022-11-12T10:02:05;5.70;;;4.33;;
4202;SDS011;2115;51.038;7.006;2022-11-12T10:10:19;6.20;;;3.20;;
4202;SDS011;2115;51.038;7.006;2022-11-12T10:18:49;5.90;;;3.40;;
4202;SDS011;2115;51.038;7.006;2022-11-12T10:24:09;6.83;;;3.67;;
4202;SDS011;2115;51.038;7.006;2022-11-12T10:26:36;5.03;;;3.50;;
4202;SDS011;2115;51.038;7.006;2022-11-12T10:31:39;5.30;;;3.40;;
4202;SDS011;2115;51.038;7.006;2022-11-12T10:34:10;7.77;;;3.50;;
4202;SDS011;2115;51.038;7.006;2022-11-12T10:36:41;4.23;;;3.27;;
4202;SDS011;2115;51.038;7.006;2022-11-12T10:39:08;10.73;;;4.00;;
4202;SDS011;2115;51.038;7.006;2022-11-12T10:41:34;5.90;;;3.80;;
4202;SDS011;2115;51.038;7.006;2022-11-12T10:44:00;5.53;;;3.60;;
4202;SDS011;2115;51.038;7.006;2022-11-12T10:46:31;7.20;;;4.80;;
4202;SDS011;2115;51.038;7.006;2022-11-12T10:48:59;6.43;;;3.80;;
4202;SDS011;2115;51.038;7.006;2022-11-12T10:51:30;6.37;;;3.70;;
4202;SDS011;2115;51.038;7.006;2022-11-12T10:53:57;6.33;;;3.63;;
4202;SDS011;2115;51.038;7.006;2022-11-12T10:56:27;8.13;;;4.07;;
4202;SDS011;2115;51.038;7.006;2022-11-12T11:01:38;5.40;;;3.40;;
4202;SDS011;2115;51.038;7.006;2022-11-12T11:04:04;9.60;;;4.00;;
4202;SDS011;2115;51.038;7.006;2022-11-12T11:06:30;6.60;;;3.90;;
4202;SDS011;2115;51.038;7.006;2022-11-12T11:09:29;7.30;;;4.03;;
4202;SDS011;2115;51.038;7.006;2022-11-12T11:11:51;6.20;;;3.30;;
4202;SDS011;2115;51.038;7.006;2022-11-12T11:14:25;5.60;;;3.40;;
4202;SDS011;2115;51.038;7.006;2022-11-12T11:16:53;8.10;;;3.70;;
4202;SDS011;2115;51.038;7.006;2022-11-12T11:19:19;9.23;;;3.80;;
4202;SDS011;2115;51.038;7.006;2022-11-12T11:43:37;8.03;;;3.70;;
4202;SDS011;2115;51.038;7.006;2022-11-12T11:46:15;6.13;;;3.30;;
4202;SDS011;2115;51.038;7.006;2022-11-12T11:48:53;5.60;;;3.33;;
4202;SDS011;2115;51.038;7.006;2022-11-12T11:56:31;8.80;;;3.53;;
4202;SDS011;2115;51.038;7.006;2022-11-12T12:01:34;9.57;;;4.13;;
4202;SDS011;2115;51.038;7.006;2022-11-12T12:12:34;5.37;;;3.37;;
4202;SDS011;2115;51.038;7.006;2022-11-12T12:17:53;21.30;;;6.83;;
4202;SDS011;2115;51.038;7.006;2022-11-12T12:20:44;19.50;;;9.80;;
4202;SDS011;2115;51.038;7.006;2022-11-12T12:23:28;23.73;;;12.17;;
4202;SDS011;2115;51.038;7.006;2022-11-12T12:25:57;8.70;;;4.60;;
4202;SDS011;2115;51.038;7.006;2022-11-12T12:31:18;7.33;;;3.93;;
4202;SDS011;2115;51.038;7.006;2022-11-12T12:33:57;12.13;;;6.30;;
4202;SDS011;2115;51.038;7.006;2022-11-12T12:39:08;14.80;;;5.20;;
4202;SDS011;2115;51.038;7.006;2022-11-12T12:41:55;11.70;;;5.57;;
4202;SDS011;2115;51.038;7.006;2022-11-12T12:44:23;9.30;;;5.53;;
4202;SDS011;2115;51.038;7.006;2022-11-12T12:47:11;13.10;;;6.27;;
4202;SDS011;2115;51.038;7.006;2022-11-12T12:49:37;9.10;;;4.77;;
4202;SDS011;2115;51.038;7.006;2022-11-12T12:52:04;8.27;;;4.47;;
4202;SDS011;2115;51.038;7.006;2022-11-12T12:57:04;9.50;;;5.00;;
4202;SDS011;2115;51.038;7.006;2022-11-12T12:59:49;9.30;;;4.40;;
4202;SDS011;2115;51.038;7.006;2022-11-12T13:02:18;5.03;;;3.30;;
4202;SDS011;2115;51.038;7.006;2022-11-12T13:04:55;4.20;;;2.80;;
4202;SDS011;2115;51.038;7.006;2022-11-12T13:07:22;11.80;;;3.50;;
4202;SDS011;2115;51.038;7.006;2022-11-12T13:13:04;7.37;;;3.97;;
4202;SDS011;2115;51.038;7.006;2022-11-12T13:16:09;5.90;;;3.37;;
4202;SDS011;2115;51.038;7.006;2022-11-12T13:21:10;6.77;;;3.90;;
4202;SDS011;2115;51.038;7.006;2022-11-12T13:26:41;4.50;;;3.23;;
4202;SDS011;2115;51.038;7.006;2022-11-12T13:40:15;8.83;;;3.50;;
4202;SDS011;2115;51.038;7.006;2022-11-12T13:42:45;6.70;;;3.07;;
4202;SDS011;2115;51.038;7.006;2022-11-12T13:45:14;6.50;;;3.00;;
4202;SDS011;2115;51.038;7.006;2022-11-12T13:47:40;6.70;;;2.60;;
4202;SDS011;2115;51.038;7.006;2022-11-12T13:50:06;9.80;;;2.40;;
4202;SDS011;2115;51.038;7.006;2022-11-12T13:52:32;4.10;;;2.50;;
4202;SDS011;2115;51.038;7.006;2022-11-12T13:55:31;4.43;;;2.17;;
4202;SDS011;2115;51.038;7.006;2022-11-12T14:00:55;6.33;;;2.60;;
4202;SDS011;2115;51.038;7.006;2022-11-12T14:03:28;23.33;;;3.77;;
4202;SDS011;2115;51.038;7.006;2022-11-12T14:06:05;4.53;;;2.30;;
4202;SDS011;2115;51.038;7.006;2022-11-12T14:08:43;8.90;;;2.67;;
4202;SDS011;2115;51.038;7.006;2022-11-12T14:21:23;9.50;;;2.63;;
4202;SDS011;2115;51.038;7.006;2022-11-12T14:23:48;17.50;;;3.63;;
4202;SDS011;2115;51.038;7.006;2022-11-12T14:26:32;8.80;;;3.50;;
4202;SDS011;2115;51.038;7.006;2022-11-12T14:29:12;8.43;;;3.90;;
4202;SDS011;2115;51.038;7.006;2022-11-12T14:31:40;4.87;;;2.53;;
4202;SDS011;2115;51.038;7.006;2022-11-12T14:34:47;4.87;;;2.50;;
4202;SDS011;2115;51.038;7.006;2022-11-12T14:36:55;7.17;;;2.50;;
4202;SDS011;2115;51.038;7.006;2022-11-12T14:39:24;4.80;;;2.90;;
4202;SDS011;2115;51.038;7.006;2022-11-12T14:41:51;6.97;;;3.40;;
4202;SDS011;2115;51.038;7.006;2022-11-12T14:44:18;6.67;;;3.60;;
4202;SDS011;2115;51.038;7.006;2022-11-12T14:46:47;5.10;;;2.13;;
4202;SDS011;2115;51.038;7.006;2022-11-12T14:54:47;4.10;;;2.43;;
4202;SDS011;2115;51.038;7.006;2022-11-12T14:57:23;4.80;;;2.50;;
4202;SDS011;2115;51.038;7.006;2022-11-12T14:59:50;4.93;;;2.87;;
4202;SDS011;2115;51.038;7.006;2022-11-12T15:02:18;4.27;;;2.90;;
4202;SDS011;2115;51.038;7.006;2022-11-12T15:04:53;3.87;;;3.03;;
4202;SDS011;2115;51.038;7.006;2022-11-12T15:07:30;3.33;;;2.07;;
4202;SDS011;2115;51.038;7.006;2022-11-12T15:09:58;5.17;;;3.53;;
4202;SDS011;2115;51.038;7.006;2022-11-12T15:12:25;7.63;;;3.17;;
4202;SDS011;2115;51.038;7.006;2022-11-12T15:14:53;7.63;;;3.73;;
4202;SDS011;2115;51.038;7.006;2022-11-12T15:17:31;7.80;;;3.90;;
4202;SDS011;2115;51.038;7.006;2022-11-12T15:20:02;7.27;;;3.87;;
4202;SDS011;2115;51.038;7.006;2022-11-12T15:22:29;6.00;;;4.00;;
4202;SDS011;2115;51.038;7.006;2022-11-12T15:24:54;9.00;;;3.90;;
4202;SDS011;2115;51.038;7.006;2022-11-12T15:27:31;9.60;;;3.80;;
4202;SDS011;2115;51.038;7.006;2022-11-12T15:33:05;10.40;;;5.80;;
4202;SDS011;2115;51.038;7.006;2022-11-12T15:35:32;7.33;;;5.17;;
4202;SDS011;2115;51.038;7.006;2022-11-12T15:38:03;8.43;;;5.30;;
4202;SDS011;2115;51.038;7.006;2022-11-12T15:40:31;10.77;;;5.77;;
4202;SDS011;2115;51.038;7.006;2022-11-12T15:43:01;14.83;;;5.37;;
4202;SDS011;2115;51.038;7.006;2022-11-12T15:45:27;9.50;;;5.20;;
4202;SDS011;2115;51.038;7.006;2022-11-12T15:47:52;10.60;;;5.50;;
4202;SDS011;2115;51.038;7.006;2022-11-12T15:50:18;9.13;;;4.80;;
4202;SDS011;2115;51.038;7.006;2022-11-12T15:52:47;8.47;;;5.10;;
4202;SDS011;2115;51.038;7.006;2022-11-12T15:55:12;7.57;;;4.70;;
4202;SDS011;2115;51.038;7.006;2022-11-12T15:57:42;8.77;;;4.90;;
4202;SDS011;2115;51.038;7.006;2022-11-12T16:00:18;9.50;;;5.33;;
4202;SDS011;2115;51.038;7.006;2022-11-12T16:02:45;8.50;;;5.10;;
4202;SDS011;2115;51.038;7.006;2022-11-12T16:05:13;10.47;;;5.90;;
4202;SDS011;2115;51.038;7.006;2022-11-12T16:07:40;11.60;;;5.70;;
4202;SDS011;2115;51.038;7.006;2022-11-12T16:10:05;9.83;;;5.43;;
4202;SDS011;2115;51.038;7.006;2022-11-12T16:12:31;8.63;;;5.30;;
4202;SDS011;2115;51.038;7.006;2022-11-12T16:14:57;9.63;;;5.90;;
4202;SDS011;2115;51.038;7.006;2022-11-12T16:17:23;11.90;;;5.20;;
4202;SDS011;2115;51.038;7.006;2022-11-12T16:19:48;9.57;;;5.63;;
4202;SDS011;2115;51.038;7.006;2022-11-12T16:22:14;8.50;;;5.50;;
4202;SDS011;2115;51.038;7.006;2022-11-12T16:24:39;11.63;;;5.40;;
4202;SDS011;2115;51.038;7.006;2022-11-12T16:27:05;9.20;;;5.30;;
4202;SDS011;2115;51.038;7.006;2022-11-12T16:29:33;9.30;;;4.87;;
4202;SDS011;2115;51.038;7.006;2022-11-12T16:31:59;8.30;;;4.70;;
4202;SDS011;2115;51.038;7.006;2022-11-12T16:34:25;6.30;;;4.10;;
4202;SDS011;2115;51.038;7.006;2022-11-12T16:36:50;7.13;;;4.60;;
4202;SDS011;2115;51.038;7.006;2022-11-12T16:39:15;12.67;;;5.00;;
4202;SDS011;2115;51.038;7.006;2022-11-12T16:41:41;8.83;;;4.23;;
4202;SDS011;2115;51.038;7.006;2022-11-12T16:44:06;8.17;;;3.90;;
4202;SDS011;2115;51.038;7.006;2022-11-12T16:46:35;15.93;;;5.30;;
4202;SDS011;2115;51.038;7.006;2022-11-12T16:49:05;8.10;;;4.53;;
4202;SDS011;2115;51.038;7.006;2022-11-12T16:51:34;8.53;;;4.83;;
4202;SDS011;2115;51.038;7.006;2022-11-12T16:54:00;8.27;;;5.47;;
4202;SDS011;2115;51.038;7.006;2022-11-12T16:56:25;11.17;;;5.83;;
4202;SDS011;2115;51.038;7.006;2022-11-12T16:58:50;9.40;;;6.00;;
4202;SDS011;2115;51.038;7.006;2022-11-12T17:01:26;16.70;;;7.40;;
4202;SDS011;2115;51.038;7.006;2022-11-12T17:03:53;17.97;;;9.90;;
4202;SDS011;2115;51.038;7.006;2022-11-12T17:06:20;17.23;;;8.30;;
4202;SDS011;2115;51.038;7.006;2022-11-12T17:08:46;19.97;;;9.73;;
4202;SDS011;2115;51.038;7.006;2022-11-12T17:11:12;17.03;;;8.93;;
4202;SDS011;2115;51.038;7.006;2022-11-12T17:13:38;21.53;;;9.03;;
4202;SDS011;2115;51.038;7.006;2022-11-12T17:16:05;14.47;;;8.50;;